Hot Coffee, Mississippi
Current Conditions -  °F | °C
As of 3:35 AM on Thursday 18 Dec 2014 (Local Time) from KPIB Reporting Station
Overcast Overcast  
Wind Chill: 43°   Ceiling: 10000
Heat Index: 43°   Visibility: 10mi
Dew Point: 37°   Wind: 3mph
Humidity: 81%   Direction: 30°NNE
Pressure: 30.21"   Gusts: NA
Location:  31.6692°N, 89.543°W
Report Text: KPIB 180935Z AUTO 03003KT 10SM OVC100 06/03 A3021 RMK AO1
Loading
Personal Weather Stations






























Interactive Weather Map New forecast layout! Learn more

10-Day Weather Forecast

Advertisements
Track Severe Weather on mobile